createdAt,value
2023-04-23T00:01:59.453Z,28.30
2023-04-23T00:04:28.893Z,28.30
2023-04-23T00:06:57.227Z,28.30
2023-04-23T00:09:31.328Z,28.30
2023-04-23T00:11:59.440Z,28.30
2023-04-23T00:14:27.827Z,28.30
2023-04-23T00:16:56.110Z,28.30
2023-04-23T00:19:23.768Z,28.30
2023-04-23T00:21:51.511Z,28.30
2023-04-23T00:24:19.183Z,28.30
2023-04-23T00:26:48.238Z,28.20
2023-04-23T00:29:15.885Z,28.30
2023-04-23T00:31:43.576Z,28.30
2023-04-23T00:34:11.270Z,28.20
2023-04-23T00:36:39.083Z,28.20
2023-04-23T00:39:06.760Z,28.20
2023-04-23T00:41:35.321Z,28.20
2023-04-23T00:44:04.653Z,28.20
2023-04-23T00:46:32.306Z,28.20
2023-04-23T00:49:01.181Z,28.20
2023-04-23T00:51:29.425Z,28.20
2023-04-23T00:53:57.892Z,28.20
2023-04-23T00:56:26.266Z,28.20
2023-04-23T00:58:54.130Z,28.20
2023-04-23T01:01:23.582Z,28.20
2023-04-23T01:03:54.120Z,28.20
2023-04-23T01:06:25.032Z,28.20
2023-04-23T01:08:52.755Z,28.10
2023-04-23T01:11:20.650Z,28.10
2023-04-23T01:13:48.327Z,28.10
2023-04-23T01:16:16.021Z,28.10
2023-04-23T01:18:45.046Z,28.10
2023-04-23T01:21:13.692Z,28.10
2023-04-23T01:23:42.737Z,28.10
2023-04-23T01:26:10.858Z,28.10
2023-04-23T01:28:39.060Z,28.10
2023-04-23T01:31:07.017Z,28.10
2023-04-23T01:33:35.893Z,28.10
2023-04-23T01:36:04.044Z,28.10
2023-04-23T01:38:32.882Z,28.10
2023-04-23T01:41:01.881Z,28.10
2023-04-23T01:43:29.904Z,28.10
2023-04-23T01:45:59.416Z,28.10
2023-04-23T01:48:27.310Z,28.00
2023-04-23T01:50:55.731Z,28.00
2023-04-23T01:53:23.387Z,28.00
2023-04-23T01:55:52.540Z,28.00
2023-04-23T01:58:23.373Z,28.00
2023-04-23T02:00:51.192Z,28.00
2023-04-23T02:03:19.234Z,28.00
2023-04-23T02:05:47.117Z,28.00
2023-04-23T02:08:14.855Z,28.00
2023-04-23T02:10:42.498Z,28.00
2023-04-23T02:13:10.179Z,28.00
2023-04-23T02:15:40.391Z,28.00
2023-04-23T02:18:08.054Z,28.00
2023-04-23T02:20:38.786Z,28.00
2023-04-23T02:23:06.984Z,28.00
2023-04-23T02:25:34.914Z,28.00
2023-04-23T02:28:06.267Z,27.90
2023-04-23T02:30:34.047Z,28.00
2023-04-23T02:33:03.748Z,27.90
2023-04-23T02:35:31.646Z,27.90
2023-04-23T02:37:59.369Z,27.90
2023-04-23T02:40:27.041Z,27.90
2023-04-23T02:42:54.693Z,27.90
2023-04-23T02:45:22.358Z,27.90
2023-04-23T02:47:50.055Z,27.90
2023-04-23T02:50:19.276Z,27.90
2023-04-23T02:52:47.881Z,27.90
2023-04-23T02:55:15.594Z,27.90
2023-04-23T02:57:43.851Z,27.90
2023-04-23T03:00:12.626Z,27.90
2023-04-23T03:02:40.593Z,27.90
2023-04-23T03:05:09.171Z,27.90
2023-04-23T03:07:38.346Z,27.90
2023-04-23T03:10:06.979Z,27.90
2023-04-23T03:12:34.702Z,27.80
2023-04-23T03:15:02.365Z,27.80
2023-04-23T03:17:30.044Z,27.80
2023-04-23T03:19:57.693Z,27.80
2023-04-23T03:22:25.479Z,27.80
2023-04-23T03:24:54.488Z,27.80
2023-04-23T03:27:22.182Z,27.80
2023-04-23T03:29:49.844Z,27.80
2023-04-23T03:32:17.503Z,27.80
2023-04-23T03:34:45.164Z,27.80
2023-04-23T03:37:12.818Z,27.80
2023-04-23T03:39:40.472Z,27.80
2023-04-23T03:42:09.494Z,27.80
2023-04-23T03:44:37.230Z,27.80
2023-04-23T03:47:05.012Z,27.80
2023-04-23T03:49:32.716Z,27.80
2023-04-23T03:52:00.512Z,27.80
2023-04-23T03:54:28.310Z,27.80
2023-04-23T03:56:57.609Z,27.80
2023-04-23T03:59:26.621Z,27.80
2023-04-23T04:01:54.362Z,27.80
2023-04-23T04:04:22.306Z,27.70
2023-04-23T04:06:50.496Z,27.70
2023-04-23T04:09:18.169Z,27.70
2023-04-23T04:11:45.813Z,27.70
2023-04-23T04:14:13.716Z,27.70
2023-04-23T04:16:42.757Z,27.70
2023-04-23T04:19:10.893Z,27.70
2023-04-23T04:21:38.627Z,27.70
2023-04-23T04:24:06.655Z,27.70
2023-04-23T04:26:34.856Z,27.70
2023-04-23T04:29:02.696Z,27.70
2023-04-23T04:31:31.077Z,27.70
2023-04-23T04:34:00.185Z,27.70
2023-04-23T04:36:28.704Z,27.70
2023-04-23T04:38:58.606Z,27.70
2023-04-23T04:41:27.671Z,27.70
2023-04-23T04:43:55.791Z,27.60
2023-04-23T04:46:23.520Z,27.70
2023-04-23T04:48:51.438Z,27.70
2023-04-23T04:51:20.440Z,27.60
2023-04-23T04:53:48.245Z,27.60
2023-04-23T04:56:15.895Z,27.60
2023-04-23T04:58:43.545Z,27.60
2023-04-23T05:01:13.501Z,27.60
2023-04-23T05:03:41.325Z,27.60
2023-04-23T05:06:09.286Z,27.60
2023-04-23T05:08:38.414Z,27.60
2023-04-23T05:11:06.307Z,27.60
2023-04-23T05:13:34.035Z,27.60
2023-04-23T05:16:01.755Z,27.60
2023-04-23T05:18:29.673Z,27.60
2023-04-23T05:21:02.269Z,27.60
2023-04-23T05:23:29.946Z,27.60
2023-04-23T05:25:59.923Z,27.60
2023-04-23T05:28:27.619Z,27.60
2023-04-23T05:30:55.326Z,27.60
2023-04-23T05:33:23.087Z,27.60
2023-04-23T05:35:50.913Z,27.60
2023-04-23T05:38:18.618Z,27.60
2023-04-23T05:40:46.325Z,27.60
2023-04-23T05:43:15.494Z,27.60
2023-04-23T05:45:43.693Z,27.60
2023-04-23T05:48:11.854Z,27.60
2023-04-23T05:50:39.657Z,27.60
2023-04-23T05:53:07.435Z,27.60
2023-04-23T05:55:35.105Z,27.60
2023-04-23T05:58:03.199Z,27.60
2023-04-23T06:00:32.466Z,27.60
2023-04-23T06:03:00.778Z,27.60
2023-04-23T06:05:28.585Z,27.60
2023-04-23T06:07:56.271Z,27.60
2023-04-23T06:10:23.978Z,27.60
2023-04-23T06:12:51.648Z,27.60
2023-04-23T06:15:19.355Z,27.60
2023-04-23T06:17:48.468Z,27.60
2023-04-23T06:20:16.152Z,27.60
2023-04-23T06:22:45.209Z,27.60
2023-04-23T06:25:12.925Z,27.60
2023-04-23T06:27:40.829Z,27.60
2023-04-23T06:30:09.597Z,27.60
2023-04-23T06:32:37.402Z,27.60
2023-04-23T06:35:08.486Z,27.60
2023-04-23T06:37:36.523Z,27.60
2023-04-23T06:40:04.475Z,27.60
2023-04-23T06:42:32.179Z,27.60
2023-04-23T06:45:05.904Z,27.60
2023-04-23T06:47:34.114Z,27.60
2023-04-23T06:50:02.229Z,27.60
2023-04-23T06:52:31.235Z,27.60
2023-04-23T06:54:58.898Z,27.60
2023-04-23T06:57:26.598Z,27.60
2023-04-23T06:59:54.261Z,27.60
2023-04-23T07:02:21.952Z,27.60
2023-04-23T07:04:49.674Z,27.60
2023-04-23T07:07:17.338Z,27.60
2023-04-23T07:09:46.327Z,27.60
2023-04-23T07:12:14.055Z,27.60
2023-04-23T07:14:42.188Z,27.60
2023-04-23T07:17:11.024Z,27.60
2023-04-23T07:19:38.710Z,27.60
2023-04-23T07:22:06.427Z,27.60
2023-04-23T07:24:34.104Z,27.60
2023-04-23T07:27:04.033Z,27.60
2023-04-23T07:29:31.706Z,27.60
2023-04-23T07:31:59.546Z,27.70
2023-04-23T07:34:27.267Z,27.70
2023-04-23T07:36:56.391Z,27.70
2023-04-23T07:39:24.062Z,27.70
2023-04-23T07:41:51.821Z,27.70
2023-04-23T07:44:20.880Z,27.70
2023-04-23T07:46:48.527Z,27.80
2023-04-23T07:49:16.271Z,27.80
2023-04-23T07:51:43.955Z,27.80
2023-04-23T07:54:11.919Z,27.80
2023-04-23T07:56:41.012Z,27.80
2023-04-23T07:59:10.861Z,27.80
2023-04-23T08:01:41.970Z,27.80
2023-04-23T08:04:09.810Z,27.80
2023-04-23T08:06:37.879Z,27.80
2023-04-23T08:09:06.438Z,27.80
2023-04-23T08:11:34.265Z,27.80
2023-04-23T08:14:02.527Z,27.80
2023-04-23T08:16:31.102Z,27.80
2023-04-23T08:21:31.221Z,27.80
2023-04-23T08:23:58.990Z,27.80
2023-04-23T08:26:26.897Z,27.80
2023-04-23T08:28:54.532Z,27.80
2023-04-23T08:31:26.946Z,27.80
2023-04-23T08:33:55.080Z,27.80
2023-04-23T08:36:24.467Z,27.80
2023-04-23T08:38:52.140Z,27.80
2023-04-23T08:41:24.167Z,27.90
2023-04-23T08:43:58.634Z,27.90
2023-04-23T08:46:27.900Z,27.90
2023-04-23T08:48:57.019Z,28.00
2023-04-23T08:51:29.205Z,28.00
2023-04-23T08:53:59.444Z,28.00
2023-04-23T08:56:28.483Z,28.10
2023-04-23T08:58:57.228Z,28.10
2023-04-23T09:01:25.117Z,28.10
2023-04-23T09:03:54.563Z,28.20
2023-04-23T09:06:24.194Z,28.20
2023-04-23T09:08:54.123Z,28.20
2023-04-23T09:11:24.745Z,28.20
2023-04-23T09:13:52.377Z,28.20
2023-04-23T09:16:20.167Z,28.20
2023-04-23T09:18:47.859Z,28.20
2023-04-23T09:21:15.606Z,28.20
2023-04-23T09:23:44.329Z,28.20
2023-04-23T09:26:20.932Z,28.20
2023-04-23T09:28:50.527Z,28.20
2023-04-23T09:31:22.111Z,28.10
2023-04-23T09:33:54.435Z,28.10
2023-04-23T09:36:23.627Z,28.10
2023-04-23T09:38:51.639Z,28.10
2023-04-23T09:41:24.450Z,28.20
2023-04-23T09:43:54.324Z,28.10
2023-04-23T09:46:34.097Z,28.10
2023-04-23T09:49:06.155Z,28.10
2023-04-23T09:51:33.979Z,28.10
2023-04-23T09:54:03.537Z,28.10
2023-04-23T09:56:38.263Z,28.20
2023-04-23T09:59:24.648Z,28.20
2023-04-23T10:01:57.606Z,28.20
2023-04-23T10:04:26.535Z,28.20
2023-04-23T10:09:27.688Z,28.20
2023-04-23T10:11:57.902Z,28.20
2023-04-23T10:14:26.792Z,28.20
2023-04-23T10:16:58.722Z,28.20
2023-04-23T10:19:27.432Z,28.20
2023-04-23T10:22:05.128Z,28.20
2023-04-23T10:24:49.437Z,28.20
2023-04-23T10:29:51.053Z,28.20
2023-04-23T10:32:19.316Z,28.20
2023-04-23T10:34:47.830Z,28.20
2023-04-23T10:37:16.369Z,28.20
2023-04-23T10:39:45.914Z,28.20
2023-04-23T10:42:14.484Z,28.20
2023-04-23T10:44:57.911Z,28.20
2023-04-23T10:47:32.007Z,28.20
2023-04-23T10:50:19.445Z,28.30
2023-04-23T10:52:51.406Z,28.30
2023-04-23T10:55:21.436Z,28.30
2023-04-23T10:57:59.962Z,28.40
2023-04-23T11:00:31.834Z,28.40
2023-04-23T11:02:59.830Z,28.40
2023-04-23T11:05:29.210Z,28.40
2023-04-23T11:08:18.260Z,28.50
2023-04-23T11:10:56.134Z,28.50
2023-04-23T11:13:25.969Z,28.50
2023-04-23T11:16:18.367Z,28.50
2023-04-23T11:18:59.708Z,28.50
2023-04-23T11:21:59.446Z,28.50
2023-04-23T11:24:28.963Z,28.50
2023-04-23T11:26:57.246Z,28.50
2023-04-23T11:29:26.350Z,28.60
2023-04-23T11:34:27.567Z,28.60
2023-04-23T11:36:55.616Z,28.60
2023-04-23T11:39:24.869Z,28.60
2023-04-23T11:41:53.805Z,28.60
2023-04-23T11:44:22.447Z,28.60
2023-04-23T11:46:50.753Z,28.60
2023-04-23T11:49:20.206Z,28.60
2023-04-23T11:51:49.123Z,28.60
2023-04-23T11:54:16.797Z,28.60
2023-04-23T11:56:44.868Z,28.60
2023-04-23T11:59:12.663Z,28.60
2023-04-23T12:01:42.355Z,28.70
2023-04-23T12:04:14.530Z,28.70
2023-04-23T12:06:45.802Z,28.70
2023-04-23T12:09:14.894Z,28.70
2023-04-23T12:11:43.102Z,28.70
2023-04-23T12:14:11.973Z,28.70
2023-04-23T12:16:41.830Z,28.70
2023-04-23T12:19:10.391Z,28.70
2023-04-23T12:21:54.635Z,28.70
2023-04-23T12:24:24.140Z,28.80
2023-04-23T12:26:54.557Z,28.80
2023-04-23T12:29:23.849Z,28.80
2023-04-23T12:31:53.087Z,28.80
2023-04-23T12:34:21.827Z,28.80
2023-04-23T12:36:52.327Z,28.80
2023-04-23T12:39:25.718Z,28.80
2023-04-23T12:41:54.461Z,28.80
2023-04-23T12:44:22.887Z,28.80
2023-04-23T12:46:57.758Z,28.80
2023-04-23T12:49:27.092Z,28.80
2023-04-23T12:52:00.846Z,28.80
2023-04-23T12:54:31.243Z,28.80
2023-04-23T12:56:59.076Z,28.80
2023-04-23T12:59:27.554Z,28.80
2023-04-23T13:01:55.694Z,28.80
2023-04-23T13:04:23.436Z,28.80
2023-04-23T13:06:51.916Z,28.90
2023-04-23T13:09:21.867Z,28.80
2023-04-23T13:11:49.775Z,28.80
2023-04-23T13:14:18.042Z,28.80
2023-04-23T13:16:46.012Z,28.90
2023-04-23T13:19:14.342Z,28.90
2023-04-23T13:21:41.962Z,28.90
2023-04-23T13:24:09.889Z,28.90
2023-04-23T13:26:38.951Z,28.90
2023-04-23T13:29:07.039Z,28.90
2023-04-23T13:31:34.843Z,28.90
2023-04-23T13:34:03.085Z,28.90
2023-04-23T13:36:31.083Z,28.90
2023-04-23T13:38:58.833Z,28.90
2023-04-23T13:41:26.485Z,28.90
2023-04-23T13:43:55.488Z,28.90
2023-04-23T13:46:23.234Z,28.90
2023-04-23T13:48:50.965Z,28.90
2023-04-23T13:51:33.116Z,28.90
2023-04-23T13:54:01.748Z,28.90
2023-04-23T13:56:30.607Z,28.90
2023-04-23T13:59:15.502Z,28.90
2023-04-23T14:01:47.025Z,28.90
2023-04-23T14:04:14.992Z,28.90
2023-04-23T14:06:43.141Z,28.90
2023-04-23T14:09:11.711Z,28.90
2023-04-23T14:11:40.532Z,28.80
2023-04-23T14:14:09.680Z,28.80
2023-04-23T14:16:37.535Z,28.80
2023-04-23T14:19:05.285Z,28.80
2023-04-23T14:21:33.788Z,28.80
2023-04-23T14:24:03.464Z,28.80
2023-04-23T14:29:11.907Z,28.80
2023-04-23T14:31:39.730Z,28.80
2023-04-23T14:34:07.963Z,28.80
2023-04-23T14:36:36.330Z,28.80
2023-04-23T14:39:05.214Z,28.80
2023-04-23T14:41:33.126Z,28.80
2023-04-23T14:44:02.072Z,28.80
2023-04-23T14:46:31.356Z,28.80
2023-04-23T14:48:59.110Z,28.80
2023-04-23T14:51:27.389Z,28.80
2023-04-23T14:53:56.670Z,28.80
2023-04-23T14:56:25.003Z,28.80
2023-04-23T14:58:52.681Z,28.80
2023-04-23T15:01:20.471Z,28.80
2023-04-23T15:03:49.707Z,28.80
2023-04-23T15:06:17.528Z,28.80
2023-04-23T15:08:45.246Z,28.80
2023-04-23T15:11:14.162Z,28.80
2023-04-23T15:13:49.947Z,28.80
2023-04-23T15:16:44.080Z,28.80
2023-04-23T15:19:17.778Z,28.80
2023-04-23T15:21:46.193Z,28.70
2023-04-23T15:24:13.872Z,28.70
2023-04-23T15:26:41.964Z,28.70
2023-04-23T15:29:10.242Z,28.70
2023-04-23T15:31:38.493Z,28.70
2023-04-23T15:34:08.620Z,28.70
2023-04-23T15:36:38.564Z,28.70
2023-04-23T15:39:07.046Z,28.70
2023-04-23T15:41:39.414Z,28.70
2023-04-23T15:44:10.831Z,28.70
2023-04-23T15:46:38.713Z,28.70
2023-04-23T15:49:06.556Z,28.70
2023-04-23T15:51:34.332Z,28.70
2023-04-23T15:54:03.444Z,28.70
2023-04-23T15:56:31.096Z,28.70
2023-04-23T15:58:58.772Z,28.70
2023-04-23T16:01:27.516Z,28.70
2023-04-23T16:04:09.620Z,28.70
2023-04-23T16:06:38.531Z,28.70
2023-04-23T16:09:08.342Z,28.70
2023-04-23T16:11:36.729Z,28.70
2023-04-23T16:14:05.242Z,28.70
2023-04-23T16:16:33.177Z,28.70
2023-04-23T16:19:01.939Z,28.70
2023-04-23T16:21:29.731Z,28.70
2023-04-23T16:23:57.858Z,28.70
2023-04-23T16:26:28.493Z,28.60
2023-04-23T16:29:16.756Z,28.60
2023-04-23T16:31:43.818Z,28.60
2023-04-23T16:34:11.508Z,28.60
2023-04-23T16:36:39.268Z,28.60
2023-04-23T16:39:07.022Z,28.60
2023-04-23T16:41:36.145Z,28.60
2023-04-23T16:44:03.886Z,28.60
2023-04-23T16:46:32.194Z,28.60
2023-04-23T16:49:00.332Z,28.60
2023-04-23T16:51:28.391Z,28.60
2023-04-23T16:53:56.454Z,28.60
2023-04-23T16:56:24.152Z,28.60
2023-04-23T16:58:53.424Z,28.50
2023-04-23T17:01:21.186Z,28.50
2023-04-23T17:03:49.084Z,28.50
2023-04-23T17:06:25.621Z,28.50
2023-04-23T17:08:53.739Z,28.50
2023-04-23T17:11:22.914Z,28.50
2023-04-23T17:13:50.708Z,28.50
2023-04-23T17:16:20.193Z,28.50
2023-04-23T17:18:48.060Z,28.50
2023-04-23T17:21:15.774Z,28.50
2023-04-23T17:23:43.488Z,28.40
2023-04-23T17:26:11.331Z,28.40
2023-04-23T17:28:40.727Z,28.40
2023-04-23T17:31:08.784Z,28.40
2023-04-23T17:33:38.764Z,28.40
2023-04-23T17:36:06.712Z,28.40
2023-04-23T17:38:34.481Z,28.40
2023-04-23T17:41:03.194Z,28.40
2023-04-23T17:43:31.754Z,28.40
2023-04-23T17:45:59.477Z,28.40
2023-04-23T17:48:27.295Z,28.30
2023-04-23T17:50:56.565Z,28.30
2023-04-23T17:53:24.366Z,28.30
2023-04-23T17:55:52.094Z,28.30
2023-04-23T17:58:21.368Z,28.30
2023-04-23T18:00:49.223Z,28.30
2023-04-23T18:03:18.653Z,28.30
2023-04-23T18:05:46.488Z,28.30
2023-04-23T18:08:17.137Z,28.20
2023-04-23T18:10:45.657Z,28.20
2023-04-23T18:13:13.726Z,28.20
2023-04-23T18:15:42.207Z,28.20
2023-04-23T18:18:10.132Z,28.20
2023-04-23T18:20:38.972Z,28.20
2023-04-23T18:23:08.039Z,28.20
2023-04-23T18:25:37.243Z,28.20
2023-04-23T18:28:05.213Z,28.20
2023-04-23T18:30:32.944Z,28.20
2023-04-23T18:33:04.379Z,28.10
2023-04-23T18:35:32.131Z,28.10
2023-04-23T18:38:06.864Z,28.10
2023-04-23T18:40:34.688Z,28.10
2023-04-23T18:43:03.715Z,28.10
2023-04-23T18:45:31.435Z,28.10
2023-04-23T18:48:06.270Z,28.10
2023-04-23T18:50:39.007Z,28.10
2023-04-23T18:53:06.758Z,28.00
2023-04-23T18:55:34.425Z,28.00
2023-04-23T18:58:03.869Z,28.00
2023-04-23T19:00:31.667Z,28.00
2023-04-23T19:02:59.793Z,28.00
2023-04-23T19:05:28.139Z,28.00
2023-04-23T19:07:56.091Z,28.00
2023-04-23T19:10:23.905Z,28.00
2023-04-23T19:12:51.636Z,28.00
2023-04-23T19:15:20.700Z,28.00
2023-04-23T19:17:49.005Z,27.90
2023-04-23T19:20:18.616Z,27.90
2023-04-23T19:22:46.610Z,27.90
2023-04-23T19:25:14.302Z,27.90
2023-04-23T19:27:42.038Z,27.90
2023-04-23T19:30:10.612Z,27.90
2023-04-23T19:32:39.841Z,27.90
2023-04-23T19:35:07.914Z,27.90
2023-04-23T19:37:36.921Z,27.90
2023-04-23T19:40:05.262Z,27.90
2023-04-23T19:42:32.936Z,27.90
2023-04-23T19:45:00.611Z,27.90
2023-04-23T19:47:28.359Z,27.90
2023-04-23T19:49:57.403Z,27.90
2023-04-23T19:52:27.449Z,27.90
2023-04-23T19:54:55.112Z,27.90
2023-04-23T19:57:22.767Z,27.90
2023-04-23T19:59:50.635Z,27.90
2023-04-23T20:02:18.376Z,27.90
2023-04-23T20:04:46.648Z,27.90
2023-04-23T20:07:15.792Z,27.90
2023-04-23T20:09:43.664Z,27.90
2023-04-23T20:12:11.618Z,27.80
2023-04-23T20:14:39.389Z,27.80
2023-04-23T20:17:07.448Z,27.80
2023-04-23T20:19:35.164Z,27.80
2023-04-23T20:22:02.831Z,27.80
2023-04-23T20:24:31.842Z,27.80
2023-04-23T20:26:59.515Z,27.80
2023-04-23T20:29:27.528Z,27.80
2023-04-23T20:31:55.387Z,27.80
2023-04-23T20:34:23.149Z,27.80
2023-04-23T20:36:51.174Z,27.80
2023-04-23T20:39:22.235Z,27.80
2023-04-23T20:41:52.410Z,27.80
2023-04-23T20:44:22.417Z,27.80
2023-04-23T20:46:51.282Z,27.80
2023-04-23T20:49:19.357Z,27.80
2023-04-23T20:51:47.308Z,27.80
2023-04-23T20:54:15.002Z,27.80
2023-04-23T20:56:42.775Z,27.80
2023-04-23T20:59:12.384Z,27.70
2023-04-23T21:01:40.225Z,27.70
2023-04-23T21:04:08.467Z,27.80
2023-04-23T21:06:36.427Z,27.70
2023-04-23T21:09:04.751Z,27.70
2023-04-23T21:11:33.331Z,27.70
2023-04-23T21:14:01.556Z,27.70
2023-04-23T21:16:30.734Z,27.70
2023-04-23T21:18:58.464Z,27.70
2023-04-23T21:21:29.544Z,27.70
2023-04-23T21:23:57.369Z,27.70
2023-04-23T21:26:25.299Z,27.70
2023-04-23T21:28:52.958Z,27.70
2023-04-23T21:31:29.601Z,27.70
2023-04-23T21:33:58.655Z,27.70
2023-04-23T21:36:26.425Z,27.70
2023-04-23T21:38:54.086Z,27.70
2023-04-23T21:41:21.810Z,27.70
2023-04-23T21:43:49.530Z,27.60
2023-04-23T21:46:17.289Z,27.60
2023-04-23T21:48:45.003Z,27.60
2023-04-23T21:51:14.367Z,27.60
2023-04-23T21:53:42.027Z,27.60
2023-04-23T21:56:09.721Z,27.60
2023-04-23T21:58:37.517Z,27.60
2023-04-23T22:01:05.318Z,27.60
2023-04-23T22:03:38.525Z,27.60
2023-04-23T22:06:08.015Z,27.60
2023-04-23T22:08:38.934Z,27.60
2023-04-23T22:11:06.922Z,27.60
2023-04-23T22:13:35.588Z,27.60
2023-04-23T22:16:06.544Z,27.60
2023-04-23T22:18:39.713Z,27.60
2023-04-23T22:21:07.699Z,27.60
2023-04-23T22:23:36.700Z,27.60
2023-04-23T22:26:04.420Z,27.60
2023-04-23T22:28:33.749Z,27.60
2023-04-23T22:31:01.579Z,27.50
2023-04-23T22:33:29.957Z,27.50
2023-04-23T22:35:59.800Z,27.50
2023-04-23T22:38:27.498Z,27.50
2023-04-23T22:40:56.516Z,27.50
2023-04-23T22:43:24.181Z,27.50
2023-04-23T22:45:51.909Z,27.50
2023-04-23T22:48:19.599Z,27.50
2023-04-23T22:50:47.234Z,27.50
2023-04-23T22:53:14.961Z,27.50
2023-04-23T22:55:42.706Z,27.50
2023-04-23T22:58:11.750Z,27.50
2023-04-23T23:00:39.432Z,27.50
2023-04-23T23:03:07.235Z,27.50
2023-04-23T23:05:34.958Z,27.50
2023-04-23T23:08:02.674Z,27.40
2023-04-23T23:10:30.499Z,27.40
2023-04-23T23:12:58.182Z,27.40
2023-04-23T23:15:27.174Z,27.40
2023-04-23T23:17:54.896Z,27.40
2023-04-23T23:20:22.600Z,27.40
2023-04-23T23:22:50.399Z,27.40
2023-04-23T23:25:18.158Z,27.40
2023-04-23T23:27:45.819Z,27.40
2023-04-23T23:30:13.518Z,27.40
2023-04-23T23:32:42.615Z,27.40
2023-04-23T23:35:10.815Z,27.40
2023-04-23T23:37:38.476Z,27.40
2023-04-23T23:40:07.488Z,27.40
2023-04-23T23:42:35.155Z,27.40
2023-04-23T23:45:02.878Z,27.40
2023-04-23T23:47:30.641Z,27.40
2023-04-23T23:49:59.687Z,27.30
2023-04-23T23:52:27.419Z,27.30
2023-04-23T23:54:55.059Z,27.30
2023-04-23T23:57:22.792Z,27.30
2023-04-23T23:59:50.520Z,27.30
